Time;durP1;ratioP1;P1;durP2;ratioP2;P2;SDS_P1;SDS_P2;PMS_P1;PMS_P2;Temp;Humidity;BMP_temperature;BMP_pressure;BME280_temperature;BME280_humidity;BME280_pressure;Samples;Min_cycle;Max_cycle;Signal;HPM_P1;HPM_P2
2023/01/15 00:04:38;;;;;;;19.75;15.07;;;;;;;;;;10206653;28;20574;-67
2023/01/15 00:09:36;;;;;;;20.13;15.30;;;;;;;;;;10208840;28;20070;-67
2023/01/15 00:14:34;;;;;;;58.25;40.35;;;;;;;;;;10208405;28;20467;-68
2023/01/15 00:19:35;;;;;;;50.00;36.13;;;;;;;;;;10211069;28;20096;-68
2023/01/15 00:29:50;;;;;;;32.42;24.52;;;;;;;;;;10216801;28;20069;-68
2023/01/15 00:34:49;;;;;;;22.75;17.10;;;;;;;;;;10229705;28;20513;-68
2023/01/15 00:39:48;;;;;;;22.38;17.13;;;;;;;;;;10215959;28;20532;-68
2023/01/15 00:44:46;;;;;;;21.48;16.33;;;;;;;;;;10216158;28;20065;-67
2023/01/15 00:49:44;;;;;;;30.27;23.13;;;;;;;;;;10216108;28;20930;-67
2023/01/15 00:54:43;;;;;;;24.92;17.75;;;;;;;;;;10216517;28;20092;-67
2023/01/15 00:59:43;;;;;;;26.35;19.10;;;;;;;;;;10220730;28;20084;-68
2023/01/15 01:04:41;;;;;;;24.85;18.15;;;;;;;;;;10215063;28;20061;-68
2023/01/15 01:09:39;;;;;;;21.05;17.45;;;;;;;;;;10214468;28;20076;-68
2023/01/15 01:14:38;;;;;;;21.30;16.15;;;;;;;;;;10220600;28;20073;-67
2023/01/15 01:19:37;;;;;;;21.85;16.13;;;;;;;;;;10211130;28;20515;-68
2023/01/15 01:24:37;;;;;;;18.77;15.30;;;;;;;;;;10211604;28;20073;-68
2023/01/15 01:29:37;;;;;;;20.90;17.00;;;;;;;;;;10214990;28;20057;-68
2023/01/15 01:34:35;;;;;;;21.60;16.95;;;;;;;;;;10218579;28;20092;-68
2023/01/15 01:39:34;;;;;;;19.10;15.45;;;;;;;;;;10213179;28;20038;-67
2023/01/15 01:44:51;;;;;;;17.35;13.57;;;;;;;;;;10213175;28;20107;-68
2023/01/15 01:49:51;;;;;;;18.80;13.05;;;;;;;;;;10214241;28;20061;-67
2023/01/15 01:54:51;;;;;;;14.82;12.35;;;;;;;;;;10212496;28;20495;-68
2023/01/15 01:59:49;;;;;;;14.27;11.60;;;;;;;;;;10211181;28;20064;-68
2023/01/15 02:04:48;;;;;;;16.55;11.45;;;;;;;;;;10213519;28;20069;-68
2023/01/15 02:09:46;;;;;;;15.45;12.60;;;;;;;;;;10212246;28;20065;-68
2023/01/15 02:14:49;;;;;;;15.98;12.55;;;;;;;;;;10207226;28;20077;-68
2023/01/15 02:19:51;;;;;;;14.05;11.90;;;;;;;;;;10223477;28;20050;-68
2023/01/15 02:24:57;;;;;;;17.05;13.63;;;;;;;;;;10212341;28;20050;-68
2023/01/15 02:29:59;;;;;;;15.48;11.82;;;;;;;;;;10212187;28;20081;-68
2023/01/15 02:35:06;;;;;;;16.80;12.77;;;;;;;;;;10218471;28;20093;-67
2023/01/15 02:40:05;;;;;;;15.50;12.80;;;;;;;;;;10217386;28;20467;-67
2023/01/15 02:45:09;;;;;;;13.65;11.90;;;;;;;;;;10216753;28;20482;-67
2023/01/15 02:50:12;;;;;;;15.95;12.70;;;;;;;;;;10211182;28;20157;-68
2023/01/15 02:55:12;;;;;;;14.10;10.88;;;;;;;;;;10211159;28;20081;-67
2023/01/15 03:00:17;;;;;;;16.65;12.20;;;;;;;;;;10213782;28;20509;-67
2023/01/15 03:05:18;;;;;;;14.43;11.18;;;;;;;;;;10209098;28;20414;-67
2023/01/15 03:10:19;;;;;;;14.57;10.48;;;;;;;;;;10214480;28;20411;-68
2023/01/15 03:16:33;;;;;;;19.17;15.00;;;;;;;;;;10208908;28;20080;-68
2023/01/15 03:20:42;;;;;;;15.20;10.70;;;;;;;;;;10210011;28;20072;-68
2023/01/15 03:25:43;;;;;;;13.68;10.30;;;;;;;;;;10210823;28;20077;-68
2023/01/15 03:30:43;;;;;;;17.50;10.63;;;;;;;;;;10216574;28;20388;-67
2023/01/15 03:35:44;;;;;;;15.32;12.20;;;;;;;;;;10209495;28;20081;-67
2023/01/15 03:40:51;;;;;;;14.03;11.37;;;;;;;;;;10208076;28;20194;-68
2023/01/15 03:45:52;;;;;;;14.40;11.35;;;;;;;;;;10211671;28;20042;-68
2023/01/15 03:50:52;;;;;;;16.83;12.82;;;;;;;;;;10223564;28;20697;-67
2023/01/15 03:55:54;;;;;;;15.73;11.75;;;;;;;;;;10206881;28;20088;-68
2023/01/15 04:00:57;;;;;;;14.60;11.18;;;;;;;;;;10204754;28;20073;-68
2023/01/15 04:05:57;;;;;;;14.30;12.27;;;;;;;;;;10208521;28;20191;-68
2023/01/15 04:10:58;;;;;;;17.27;14.02;;;;;;;;;;10206786;28;20081;-68
2023/01/15 04:16:02;;;;;;;20.80;14.77;;;;;;;;;;10206173;28;20081;-67
2023/01/15 04:21:01;;;;;;;16.02;12.60;;;;;;;;;;10204805;28;20089;-67
2023/01/15 04:26:06;;;;;;;19.13;14.02;;;;;;;;;;10210501;28;20080;-68
2023/01/15 04:31:06;;;;;;;24.55;19.20;;;;;;;;;;10207546;28;20117;-67
2023/01/15 04:36:06;;;;;;;20.23;14.65;;;;;;;;;;10206802;28;20144;-67
2023/01/15 04:46:22;;;;;;;17.52;12.30;;;;;;;;;;10210487;28;20073;-68
2023/01/15 04:51:20;;;;;;;21.10;16.60;;;;;;;;;;10210024;28;20073;-67
2023/01/15 04:56:18;;;;;;;20.38;13.27;;;;;;;;;;10205611;28;20519;-67
2023/01/15 05:01:18;;;;;;;17.70;12.57;;;;;;;;;;10203822;28;20483;-67
2023/01/15 05:06:17;;;;;;;17.02;11.93;;;;;;;;;;10213613;28;20092;-67
2023/01/15 05:11:16;;;;;;;19.55;14.13;;;;;;;;;;10214328;28;20077;-67
2023/01/15 05:16:15;;;;;;;64.50;33.40;;;;;;;;;;10220763;28;20092;-68
2023/01/15 05:21:14;;;;;;;41.03;22.75;;;;;;;;;;10215037;28;20062;-67
2023/01/15 05:26:13;;;;;;;28.65;19.70;;;;;;;;;;10213345;28;20202;-67
2023/01/15 05:31:13;;;;;;;27.17;23.55;;;;;;;;;;10211077;28;20073;-67
2023/01/15 05:36:12;;;;;;;18.33;15.55;;;;;;;;;;10214251;28;20562;-68
2023/01/15 05:46:25;;;;;;;20.73;15.20;;;;;;;;;;10210117;28;20077;-68
2023/01/15 05:51:23;;;;;;;19.67;15.45;;;;;;;;;;10213621;28;20077;-68
2023/01/15 05:56:21;;;;;;;21.38;17.98;;;;;;;;;;10208429;28;20088;-68
2023/01/15 06:01:19;;;;;;;24.90;19.42;;;;;;;;;;10206789;28;20104;-67
2023/01/15 06:06:19;;;;;;;24.98;20.20;;;;;;;;;;10207117;28;20079;-68
2023/01/15 06:11:17;;;;;;;24.00;18.65;;;;;;;;;;10214129;28;20081;-66
2023/01/15 06:16:15;;;;;;;22.58;19.40;;;;;;;;;;10208123;28;20907;-67
2023/01/15 06:21:14;;;;;;;18.77;14.35;;;;;;;;;;10225572;28;20083;-67
2023/01/15 06:26:15;;;;;;;19.25;14.65;;;;;;;;;;10208268;28;20077;-68
2023/01/15 06:31:14;;;;;;;48.15;39.75;;;;;;;;;;10209474;28;20092;-67
2023/01/15 06:36:14;;;;;;;19.42;14.65;;;;;;;;;;10211827;28;20083;-66
2023/01/15 06:51:45;;;;;;;20.15;16.75;;;;;;;;;;10209387;28;20065;-68
2023/01/15 06:56:45;;;;;;;19.20;13.98;;;;;;;;;;10211200;28;20406;-67
2023/01/15 07:01:43;;;;;;;20.00;16.45;;;;;;;;;;10204253;28;20088;-68
2023/01/15 07:06:42;;;;;;;21.10;15.45;;;;;;;;;;10207318;28;20061;-67
2023/01/15 07:11:48;;;;;;;21.35;15.82;;;;;;;;;;10209188;28;20494;-67
2023/01/15 07:16:48;;;;;;;20.90;15.02;;;;;;;;;;10210524;28;20080;-67
2023/01/15 07:21:47;;;;;;;19.92;14.50;;;;;;;;;;10211234;28;20061;-67
2023/01/15 07:26:46;;;;;;;17.17;13.00;;;;;;;;;;10208559;28;20061;-67
2023/01/15 07:31:44;;;;;;;18.15;13.35;;;;;;;;;;10208474;28;20109;-67
2023/01/15 07:36:43;;;;;;;19.45;14.48;;;;;;;;;;10212477;28;20081;-67
2023/01/15 07:52:20;;;;;;;31.95;18.58;;;;;;;;;;10214739;28;19960;-67
2023/01/15 07:57:21;;;;;;;40.15;25.40;;;;;;;;;;10206370;28;20080;-68
2023/01/15 08:02:20;;;;;;;36.88;25.55;;;;;;;;;;10211626;28;20076;-67
2023/01/15 08:07:19;;;;;;;26.17;19.05;;;;;;;;;;10205535;28;20076;-66
2023/01/15 08:17:33;;;;;;;;;;;;;;;;;;10217309;28;20073;-66
2023/01/15 08:22:32;;;;;;;54.22;33.58;;;;;;;;;;10212891;28;19960;-66
2023/01/15 08:27:31;;;;;;;56.35;32.40;;;;;;;;;;10208007;28;20081;-67
2023/01/15 08:32:30;;;;;;;53.50;33.42;;;;;;;;;;10209456;28;20062;-66
2023/01/15 08:37:28;;;;;;;39.78;27.63;;;;;;;;;;10206843;28;20069;-66
2023/01/15 08:42:28;;;;;;;26.92;18.73;;;;;;;;;;10214085;28;20068;-67
2023/01/15 08:47:26;;;;;;;34.30;23.48;;;;;;;;;;10215205;28;20065;-67
2023/01/15 08:52:24;;;;;;;37.72;23.13;;;;;;;;;;10215160;28;20061;-67
2023/01/15 08:57:22;;;;;;;45.63;30.13;;;;;;;;;;10222083;28;20076;-67
2023/01/15 09:02:22;;;;;;;24.35;19.65;;;;;;;;;;10216783;28;20068;-67
2023/01/15 09:07:20;;;;;;;26.60;16.20;;;;;;;;;;10215684;28;20077;-67
2023/01/15 09:12:19;;;;;;;36.17;20.73;;;;;;;;;;10217166;28;20072;-66
2023/01/15 09:17:17;;;;;;;24.17;14.55;;;;;;;;;;10214800;28;20087;-66
2023/01/15 09:22:16;;;;;;;37.47;26.95;;;;;;;;;;10215431;28;20572;-66
2023/01/15 09:27:15;;;;;;;28.27;18.05;;;;;;;;;;10227718;28;20085;-66
2023/01/15 09:32:13;;;;;;;27.08;21.52;;;;;;;;;;10216014;28;20073;-67
2023/01/15 09:37:11;;;;;;;18.25;14.73;;;;;;;;;;10213655;28;20077;-65
2023/01/15 09:42:17;;;;;;;36.33;23.98;;;;;;;;;;10217835;28;20496;-67
2023/01/15 09:47:18;;;;;;;45.80;35.45;;;;;;;;;;10214357;28;20076;-67
2023/01/15 09:52:23;;;;;;;21.80;16.52;;;;;;;;;;10221703;28;20073;-67
2023/01/15 09:57:24;;;;;;;19.60;15.23;;;;;;;;;;10217775;28;20649;-67
2023/01/15 10:02:25;;;;;;;30.23;22.75;;;;;;;;;;10218259;28;20167;-67
2023/01/15 10:07:26;;;;;;;24.33;16.50;;;;;;;;;;10211554;28;20088;-67
2023/01/15 10:12:37;;;;;;;40.78;26.92;;;;;;;;;;10206098;28;20065;-65
2023/01/15 10:17:40;;;;;;;18.27;13.20;;;;;;;;;;10208161;28;20533;-66
2023/01/15 10:22:48;;;;;;;21.35;17.75;;;;;;;;;;10211068;28;20073;-66
2023/01/15 10:27:50;;;;;;;22.70;19.20;;;;;;;;;;10212153;28;20477;-66
2023/01/15 10:32:51;;;;;;;18.50;13.57;;;;;;;;;;10213533;28;20083;-66
2023/01/15 10:38:02;;;;;;;20.50;15.10;;;;;;;;;;10218405;28;20083;-66
2023/01/15 10:43:06;;;;;;;22.92;16.90;;;;;;;;;;10210251;28;20108;-67
2023/01/15 10:48:09;;;;;;;35.35;26.08;;;;;;;;;;10213220;28;20073;-68
2023/01/15 10:53:13;;;;;;;18.55;14.25;;;;;;;;;;10212291;28;20076;-68
2023/01/15 10:58:14;;;;;;;24.10;16.95;;;;;;;;;;10212116;28;20529;-67
2023/01/15 11:03:16;;;;;;;18.00;14.50;;;;;;;;;;10206872;28;20068;-67
2023/01/15 11:08:20;;;;;;;23.15;17.90;;;;;;;;;;10211328;28;20081;-68
2023/01/15 11:24:15;;;;;;;25.42;19.48;;;;;;;;;;10198597;28;20062;-66
2023/01/15 11:29:15;;;;;;;15.25;12.07;;;;;;;;;;10204603;28;20088;-67
2023/01/15 11:34:19;;;;;;;14.82;11.88;;;;;;;;;;10207400;28;20069;-67
2023/01/15 11:39:23;;;;;;;14.02;12.48;;;;;;;;;;10208409;28;20085;-64
2023/01/15 11:54:55;;;;;;;19.20;15.82;;;;;;;;;;10209565;28;20175;-67
2023/01/15 11:59:54;;;;;;;12.85;11.55;;;;;;;;;;10211970;28;20084;-65
2023/01/15 12:04:55;;;;;;;17.38;15.48;;;;;;;;;;10207026;28;20065;-67
2023/01/15 12:10:06;;;;;;;14.52;13.02;;;;;;;;;;10191467;28;20069;-65
2023/01/15 12:15:12;;;;;;;12.38;10.88;;;;;;;;;;10214657;28;20100;-65
2023/01/15 12:20:15;;;;;;;10.45;8.35;;;;;;;;;;10216139;28;20073;-65
2023/01/15 12:25:19;;;;;;;12.32;10.68;;;;;;;;;;10221886;28;20065;-65
2023/01/15 12:30:22;;;;;;;9.65;8.32;;;;;;;;;;10209010;28;20080;-67
2023/01/15 12:35:33;;;;;;;10.98;8.55;;;;;;;;;;10208796;28;20070;-66
2023/01/15 12:40:39;;;;;;;13.18;10.95;;;;;;;;;;10211080;28;20266;-66
2023/01/15 12:45:41;;;;;;;10.68;9.30;;;;;;;;;;10214742;28;20082;-66
2023/01/15 12:50:43;;;;;;;19.17;13.48;;;;;;;;;;10216175;28;20077;-65
2023/01/15 12:55:47;;;;;;;10.00;7.93;;;;;;;;;;10216144;28;20091;-65
2023/01/15 13:00:48;;;;;;;50.53;28.65;;;;;;;;;;10210558;28;20957;-66
2023/01/15 13:05:48;;;;;;;37.05;23.27;;;;;;;;;;10213527;28;20077;-67
2023/01/15 13:10:48;;;;;;;18.05;12.68;;;;;;;;;;10213729;28;20480;-67
2023/01/15 13:15:55;;;;;;;24.67;17.88;;;;;;;;;;10214206;28;20073;-66
2023/01/15 13:20:54;;;;;;;12.25;10.43;;;;;;;;;;10208931;28;20117;-65
2023/01/15 13:26:07;;;;;;;10.43;8.35;;;;;;;;;;10214033;28;20089;-66
2023/01/15 13:31:13;;;;;;;13.75;10.32;;;;;;;;;;10213327;28;20085;-66
2023/01/15 13:36:13;;;;;;;18.88;13.23;;;;;;;;;;10213214;28;20069;-66
2023/01/15 13:42:30;;;;;;;16.45;12.18;;;;;;;;;;10212433;28;20073;-67
2023/01/15 13:46:36;;;;;;;31.85;21.20;;;;;;;;;;10215212;28;20498;-67
2023/01/15 13:51:37;;;;;;;36.78;24.05;;;;;;;;;;10209368;28;20061;-67
2023/01/15 13:56:38;;;;;;;14.05;10.60;;;;;;;;;;10208843;28;20065;-66
2023/01/15 14:01:38;;;;;;;66.60;44.88;;;;;;;;;;10213511;28;20089;-66
2023/01/15 14:06:38;;;;;;;62.22;36.10;;;;;;;;;;10212792;28;20077;-68
2023/01/15 14:11:37;;;;;;;119.82;67.55;;;;;;;;;;10212911;28;20065;-67
2023/01/15 14:16:42;;;;;;;101.15;60.38;;;;;;;;;;10212472;28;20069;-67
2023/01/15 14:21:45;;;;;;;41.05;29.90;;;;;;;;;;10211748;28;20081;-67
2023/01/15 14:26:48;;;;;;;38.88;30.73;;;;;;;;;;10211666;28;20167;-66
2023/01/15 14:31:51;;;;;;;35.72;23.23;;;;;;;;;;10208870;28;20092;-67
2023/01/15 14:36:51;;;;;;;30.55;22.60;;;;;;;;;;10206289;28;20471;-67
2023/01/15 14:47:18;;;;;;;32.58;21.58;;;;;;;;;;10212197;28;20078;-67
2023/01/15 14:52:21;;;;;;;33.25;22.92;;;;;;;;;;10211491;28;20065;-66
2023/01/15 14:57:19;;;;;;;42.85;26.35;;;;;;;;;;10210391;28;20069;-66
2023/01/15 15:02:21;;;;;;;62.63;42.45;;;;;;;;;;10210617;28;20084;-67
2023/01/15 15:07:21;;;;;;;52.67;38.03;;;;;;;;;;10210672;28;20068;-67
2023/01/15 15:12:33;;;;;;;59.70;41.00;;;;;;;;;;10210927;28;20069;-67
2023/01/15 15:17:37;;;;;;;76.07;52.22;;;;;;;;;;10204460;28;20065;-67
2023/01/15 15:22:36;;;;;;;60.47;44.75;;;;;;;;;;10209786;28;20068;-67
2023/01/15 15:27:35;;;;;;;64.30;51.60;;;;;;;;;;10208804;28;20085;-66
2023/01/15 15:32:39;;;;;;;82.72;59.15;;;;;;;;;;10212694;28;20049;-67
2023/01/15 15:37:37;;;;;;;83.13;57.13;;;;;;;;;;10211168;28;20573;-68
2023/01/15 15:53:16;;;;;;;59.17;39.50;;;;;;;;;;10212355;28;20052;-66
2023/01/15 15:58:18;;;;;;;79.15;54.67;;;;;;;;;;10209042;28;20088;-67
2023/01/15 16:03:21;;;;;;;79.70;55.13;;;;;;;;;;10208023;28;20057;-66
2023/01/15 16:08:20;;;;;;;96.10;74.22;;;;;;;;;;10208182;28;20065;-66
2023/01/15 16:13:23;;;;;;;74.57;56.15;;;;;;;;;;10208404;28;20507;-67
2023/01/15 16:18:26;;;;;;;58.15;44.15;;;;;;;;;;10208060;28;20076;-67
2023/01/15 16:23:25;;;;;;;56.03;43.90;;;;;;;;;;10208226;28;20088;-67
2023/01/15 16:28:24;;;;;;;68.47;52.83;;;;;;;;;;10207570;28;20068;-66
2023/01/15 16:33:24;;;;;;;63.15;44.80;;;;;;;;;;10209701;28;20474;-66
2023/01/15 16:38:22;;;;;;;60.13;44.97;;;;;;;;;;10202104;28;20475;-67
2023/01/15 16:43:22;;;;;;;66.55;47.05;;;;;;;;;;10210572;28;20068;-66
2023/01/15 16:48:32;;;;;;;78.60;53.72;;;;;;;;;;10207939;28;20057;-66
2023/01/15 16:53:32;;;;;;;55.10;39.88;;;;;;;;;;10208493;28;20069;-68
2023/01/15 16:58:35;;;;;;;66.05;46.55;;;;;;;;;;10204678;28;20735;-68
2023/01/15 17:03:35;;;;;;;30.50;25.02;;;;;;;;;;10215161;28;20088;-66
2023/01/15 17:08:37;;;;;;;33.97;24.45;;;;;;;;;;10213624;28;20084;-67
2023/01/15 17:13:37;;;;;;;34.50;24.83;;;;;;;;;;10215362;28;20061;-67
2023/01/15 17:18:37;;;;;;;33.92;25.67;;;;;;;;;;10213121;28;20065;-67
2023/01/15 17:23:36;;;;;;;52.78;38.65;;;;;;;;;;10211921;28;20089;-68
2023/01/15 17:28:35;;;;;;;57.15;40.08;;;;;;;;;;10205209;28;20081;-68
2023/01/15 17:33:33;;;;;;;73.03;50.28;;;;;;;;;;10214184;28;20070;-66
2023/01/15 17:38:32;;;;;;;58.30;44.95;;;;;;;;;;10216339;28;20061;-68
2023/01/15 17:43:31;;;;;;;58.22;48.42;;;;;;;;;;10214895;28;20057;-67
2023/01/15 17:48:29;;;;;;;34.75;27.35;;;;;;;;;;10212894;28;20072;-68
2023/01/15 17:53:28;;;;;;;31.90;21.38;;;;;;;;;;10211516;28;20521;-66
2023/01/15 18:09:02;;;;;;;24.33;19.33;;;;;;;;;;10208737;28;20480;-68
2023/01/15 18:14:02;;;;;;;24.05;19.95;;;;;;;;;;10213916;28;20078;-67
2023/01/15 18:19:02;;;;;;;31.50;23.80;;;;;;;;;;10211616;28;20456;-68
2023/01/15 18:24:03;;;;;;;31.13;26.73;;;;;;;;;;10209368;28;20534;-68
2023/01/15 18:29:02;;;;;;;26.20;22.83;;;;;;;;;;10203109;28;20128;-67
2023/01/15 18:34:01;;;;;;;23.27;19.60;;;;;;;;;;10210498;28;20073;-67
2023/01/15 18:39:04;;;;;;;27.13;20.42;;;;;;;;;;10214376;28;20103;-67
2023/01/15 18:49:29;;;;;;;32.85;25.63;;;;;;;;;;10196557;28;20081;-68
2023/01/15 18:54:27;;;;;;;22.05;17.73;;;;;;;;;;10208403;28;20077;-67
2023/01/15 18:59:31;;;;;;;30.10;21.85;;;;;;;;;;10210713;28;20119;-67
2023/01/15 19:04:29;;;;;;;27.70;21.52;;;;;;;;;;10212896;28;20076;-68
2023/01/15 19:09:35;;;;;;;26.50;21.17;;;;;;;;;;10216674;28;20081;-68
2023/01/15 19:19:52;;;;;;;11.88;9.80;;;;;;;;;;10209531;28;20561;-68
2023/01/15 19:24:50;;;;;;;13.38;10.80;;;;;;;;;;10211441;28;20478;-68
2023/01/15 19:29:50;;;;;;;14.15;11.32;;;;;;;;;;10209749;28;20145;-68
2023/01/15 19:34:51;;;;;;;16.83;11.77;;;;;;;;;;10207824;28;20061;-68
2023/01/15 19:39:50;;;;;;;19.65;14.82;;;;;;;;;;10213731;28;20065;-68
2023/01/15 19:50:21;;;;;;;15.85;12.82;;;;;;;;;;10206078;28;20083;-69
2023/01/15 19:55:19;;;;;;;17.38;14.60;;;;;;;;;;10206704;28;20057;-68
2023/01/15 20:00:20;;;;;;;18.73;14.50;;;;;;;;;;10209425;28;20081;-69
2023/01/15 20:05:18;;;;;;;21.98;16.63;;;;;;;;;;10208029;28;20479;-68
2023/01/15 20:10:17;;;;;;;25.08;16.88;;;;;;;;;;10207055;28;20111;-68
2023/01/15 20:15:16;;;;;;;16.33;13.73;;;;;;;;;;10206283;28;20294;-69
2023/01/15 20:20:15;;;;;;;20.40;15.75;;;;;;;;;;10206096;28;20062;-67
2023/01/15 20:25:15;;;;;;;19.67;14.65;;;;;;;;;;10204387;28;20614;-68
2023/01/15 20:30:15;;;;;;;23.80;18.42;;;;;;;;;;10204106;28;20099;-68
2023/01/15 20:35:14;;;;;;;31.45;23.40;;;;;;;;;;10210619;28;20487;-68
2023/01/15 20:40:12;;;;;;;15.63;13.30;;;;;;;;;;10215046;28;20066;-68
2023/01/15 20:45:13;;;;;;;50.72;35.75;;;;;;;;;;10217389;28;20502;-69
2023/01/15 20:50:12;;;;;;;43.10;31.40;;;;;;;;;;10221081;28;20509;-66
2023/01/15 20:55:12;;;;;;;83.78;56.00;;;;;;;;;;10217904;28;20061;-69
2023/01/15 21:00:14;;;;;;;30.73;23.63;;;;;;;;;;10220710;28;20517;-68
2023/01/15 21:05:15;;;;;;;23.98;17.25;;;;;;;;;;10217806;28;20075;-69
2023/01/15 21:10:16;;;;;;;16.75;12.07;;;;;;;;;;10222289;28;20111;-69
2023/01/15 21:15:16;;;;;;;17.02;13.43;;;;;;;;;;10216549;28;20061;-69
2023/01/15 21:20:15;;;;;;;21.95;17.15;;;;;;;;;;10221973;28;20526;-69
2023/01/15 21:25:16;;;;;;;40.55;33.33;;;;;;;;;;10214542;28;20478;-69
2023/01/15 21:30:15;;;;;;;41.78;29.73;;;;;;;;;;10209145;28;20104;-69
2023/01/15 21:35:15;;;;;;;20.92;14.43;;;;;;;;;;10218555;28;20069;-68
2023/01/15 21:40:16;;;;;;;13.00;9.90;;;;;;;;;;10216013;28;20073;-69
2023/01/15 21:45:14;;;;;;;51.10;31.30;;;;;;;;;;10219757;28;20494;-69
2023/01/15 21:50:13;;;;;;;79.78;41.58;;;;;;;;;;10208751;28;20058;-68
2023/01/15 21:55:12;;;;;;;91.85;55.33;;;;;;;;;;10215051;28;20065;-68
2023/01/15 22:00:11;;;;;;;106.38;71.20;;;;;;;;;;10211552;28;20034;-68
2023/01/15 22:05:10;;;;;;;75.57;53.65;;;;;;;;;;10210852;28;20076;-69
2023/01/15 22:16:04;;;;;;;24.45;18.42;;;;;;;;;;10221998;28;20120;-69
2023/01/15 22:21:04;;;;;;;33.38;22.80;;;;;;;;;;10207852;28;20073;-68
2023/01/15 22:26:02;;;;;;;38.00;26.08;;;;;;;;;;10216734;28;20069;-69
2023/01/15 22:31:05;;;;;;;54.03;38.00;;;;;;;;;;10217643;28;20502;-69
2023/01/15 22:36:05;;;;;;;50.67;35.58;;;;;;;;;;10206821;28;20068;-69
2023/01/15 22:41:04;;;;;;;95.85;64.05;;;;;;;;;;10210044;28;20613;-69
2023/01/15 22:46:10;;;;;;;54.65;37.97;;;;;;;;;;10212335;28;20530;-69
2023/01/15 22:51:08;;;;;;;46.33;34.97;;;;;;;;;;10216894;28;20484;-69
2023/01/15 22:56:07;;;;;;;41.65;28.58;;;;;;;;;;10208583;28;20069;-69
2023/01/15 23:01:05;;;;;;;62.65;37.40;;;;;;;;;;10211755;28;20070;-68
2023/01/15 23:06:05;;;;;;;67.95;37.22;;;;;;;;;;10208476;28;20069;-67
2023/01/15 23:11:07;;;;;;;39.53;23.33;;;;;;;;;;10207850;28;20502;-68
2023/01/15 23:16:06;;;;;;;36.33;24.38;;;;;;;;;;10200864;28;20054;-67
2023/01/15 23:21:07;;;;;;;25.80;18.35;;;;;;;;;;10204894;28;20080;-69
2023/01/15 23:26:06;;;;;;;31.33;19.70;;;;;;;;;;10206052;28;20073;-69
2023/01/15 23:31:05;;;;;;;18.02;12.60;;;;;;;;;;10207864;28;20084;-69
2023/01/15 23:36:04;;;;;;;23.25;16.65;;;;;;;;;;10206842;28;20073;-68
2023/01/15 23:41:07;;;;;;;26.08;17.38;;;;;;;;;;10205833;28;20073;-69
2023/01/15 23:46:33;;;;;;;25.67;19.65;;;;;;;;;;10204075;28;20069;-69
2023/01/15 23:51:32;;;;;;;30.55;21.48;;;;;;;;;;10204951;28;20581;-68
2023/01/15 23:56:32;;;;;;;24.05;16.92;;;;;;;;;;10206132;28;20069;-69
